sensor_id;sensor_type;location;lat;lon;timestamp;pressure;altitude;pressure_sealevel;temperature;humidity
54248;BME280;40161;39.768;2.722;2024-02-23T00:02:17;100128.09;;;16.29;73.49
54248;BME280;40161;39.768;2.722;2024-02-23T00:04:43;100133.78;;;16.45;73.29
54248;BME280;40161;39.768;2.722;2024-02-23T00:07:10;100153.09;;;16.25;74.46
54248;BME280;40161;39.768;2.722;2024-02-23T00:09:36;100139.75;;;16.17;74.56
54248;BME280;40161;39.768;2.722;2024-02-23T00:12:01;100171.69;;;16.25;75.12
54248;BME280;40161;39.768;2.722;2024-02-23T00:14:27;100162.06;;;16.33;75.88
54248;BME280;40161;39.768;2.722;2024-02-23T00:16:53;100149.47;;;16.28;75.35
54248;BME280;40161;39.768;2.722;2024-02-23T00:19:19;100151.53;;;16.24;77.06
54248;BME280;40161;39.768;2.722;2024-02-23T00:21:45;100137.63;;;16.51;75.85
54248;BME280;40161;39.768;2.722;2024-02-23T00:24:16;100146.94;;;16.37;76.89
54248;BME280;40161;39.768;2.722;2024-02-23T00:26:42;100118.06;;;16.38;76.43
54248;BME280;40161;39.768;2.722;2024-02-23T00:29:07;100174.44;;;16.52;76.74
54248;BME280;40161;39.768;2.722;2024-02-23T00:31:34;100177.72;;;16.43;76.77
54248;BME280;40161;39.768;2.722;2024-02-23T00:34:01;100154.34;;;16.44;77.05
54248;BME280;40161;39.768;2.722;2024-02-23T00:36:26;100143.06;;;16.35;77.38
54248;BME280;40161;39.768;2.722;2024-02-23T00:38:52;100150.94;;;16.36;78.92
54248;BME280;40161;39.768;2.722;2024-02-23T00:41:17;100155.56;;;16.43;78.00
54248;BME280;40161;39.768;2.722;2024-02-23T00:43:43;100141.84;;;16.36;78.97
54248;BME280;40161;39.768;2.722;2024-02-23T00:46:09;100150.56;;;16.58;77.89
54248;BME280;40161;39.768;2.722;2024-02-23T00:48:34;100148.16;;;16.36;79.32
54248;BME280;40161;39.768;2.722;2024-02-23T00:51:02;100153.22;;;16.42;80.70
54248;BME280;40161;39.768;2.722;2024-02-23T00:53:30;100184.81;;;16.44;81.00
54248;BME280;40161;39.768;2.722;2024-02-23T00:55:55;100145.09;;;16.54;81.34
54248;BME280;40161;39.768;2.722;2024-02-23T00:58:21;100144.19;;;16.37;82.00
54248;BME280;40161;39.768;2.722;2024-02-23T01:00:46;100160.50;;;16.32;82.81
54248;BME280;40161;39.768;2.722;2024-02-23T01:03:12;100152.53;;;16.34;83.56
54248;BME280;40161;39.768;2.722;2024-02-23T01:05:37;100152.69;;;16.23;83.63
54248;BME280;40161;39.768;2.722;2024-02-23T01:08:05;100150.66;;;16.27;83.18
54248;BME280;40161;39.768;2.722;2024-02-23T01:10:30;100108.69;;;16.05;83.70
54248;BME280;40161;39.768;2.722;2024-02-23T01:12:56;100145.81;;;16.35;83.46
54248;BME280;40161;39.768;2.722;2024-02-23T01:15:22;100115.38;;;16.08;84.59
54248;BME280;40161;39.768;2.722;2024-02-23T01:17:48;100128.16;;;16.25;83.35
54248;BME280;40161;39.768;2.722;2024-02-23T01:20:14;100131.22;;;16.31;82.46
54248;BME280;40161;39.768;2.722;2024-02-23T01:22:39;100135.97;;;16.30;81.50
54248;BME280;40161;39.768;2.722;2024-02-23T01:25:05;100143.72;;;16.16;82.39
54248;BME280;40161;39.768;2.722;2024-02-23T01:27:31;100155.28;;;16.10;82.18
54248;BME280;40161;39.768;2.722;2024-02-23T01:29:56;100136.31;;;16.09;82.36
54248;BME280;40161;39.768;2.722;2024-02-23T01:32:22;100120.38;;;16.17;81.95
54248;BME280;40161;39.768;2.722;2024-02-23T01:34:48;100146.94;;;16.14;82.70
54248;BME280;40161;39.768;2.722;2024-02-23T01:37:14;100151.53;;;16.24;83.59
54248;BME280;40161;39.768;2.722;2024-02-23T01:39:39;100122.72;;;15.91;84.75
54248;BME280;40161;39.768;2.722;2024-02-23T01:42:05;100162.66;;;16.17;86.03
54248;BME280;40161;39.768;2.722;2024-02-23T01:44:30;100135.22;;;16.03;86.82
54248;BME280;40161;39.768;2.722;2024-02-23T01:46:56;100143.63;;;15.96;89.55
54248;BME280;40161;39.768;2.722;2024-02-23T01:49:22;100166.91;;;15.98;91.30
54248;BME280;40161;39.768;2.722;2024-02-23T01:51:56;100185.59;;;15.90;91.46
54248;BME280;40161;39.768;2.722;2024-02-23T01:54:22;100188.31;;;15.60;90.92
54248;BME280;40161;39.768;2.722;2024-02-23T01:56:48;100180.41;;;15.24;93.42
54248;BME280;40161;39.768;2.722;2024-02-23T01:59:14;100184.91;;;15.11;94.07
54248;BME280;40161;39.768;2.722;2024-02-23T02:01:42;100210.16;;;15.09;95.29
54248;BME280;40161;39.768;2.722;2024-02-23T02:04:08;100186.63;;;14.94;96.72
54248;BME280;40161;39.768;2.722;2024-02-23T02:06:35;100192.50;;;14.96;96.53
54248;BME280;40161;39.768;2.722;2024-02-23T02:09:01;100167.44;;;14.80;97.10
54248;BME280;40161;39.768;2.722;2024-02-23T02:11:26;100203.44;;;15.10;96.06
54248;BME280;40161;39.768;2.722;2024-02-23T02:13:52;100196.72;;;15.11;95.29
54248;BME280;40161;39.768;2.722;2024-02-23T02:16:18;100183.06;;;14.97;95.07
54248;BME280;40161;39.768;2.722;2024-02-23T02:18:43;100187.44;;;14.91;96.09
54248;BME280;40161;39.768;2.722;2024-02-23T02:21:11;100161.44;;;14.85;96.29
54248;BME280;40161;39.768;2.722;2024-02-23T02:23:37;100143.53;;;15.00;94.97
54248;BME280;40161;39.768;2.722;2024-02-23T02:26:03;100133.94;;;15.12;93.11
54248;BME280;40161;39.768;2.722;2024-02-23T02:28:29;100128.72;;;15.21;91.75
54248;BME280;40161;39.768;2.722;2024-02-23T02:30:55;100108.72;;;15.06;91.91
54248;BME280;40161;39.768;2.722;2024-02-23T02:33:21;100126.16;;;15.00;93.55
54248;BME280;40161;39.768;2.722;2024-02-23T02:35:47;100122.06;;;14.77;95.70
54248;BME280;40161;39.768;2.722;2024-02-23T02:38:13;100151.19;;;14.85;96.58
54248;BME280;40161;39.768;2.722;2024-02-23T02:40:39;100152.69;;;14.90;96.01
54248;BME280;40161;39.768;2.722;2024-02-23T02:43:05;100157.09;;;14.87;95.01
54248;BME280;40161;39.768;2.722;2024-02-23T02:45:31;100138.97;;;14.83;96.06
54248;BME280;40161;39.768;2.722;2024-02-23T02:47:56;100093.28;;;14.75;95.10
54248;BME280;40161;39.768;2.722;2024-02-23T02:50:22;100134.25;;;14.83;94.87
54248;BME280;40161;39.768;2.722;2024-02-23T02:52:48;100131.75;;;14.92;95.06
54248;BME280;40161;39.768;2.722;2024-02-23T02:55:14;100115.72;;;14.80;93.32
54248;BME280;40161;39.768;2.722;2024-02-23T02:57:39;100120.47;;;14.76;91.68
54248;BME280;40161;39.768;2.722;2024-02-23T03:00:05;100134.25;;;14.83;90.28
54248;BME280;40161;39.768;2.722;2024-02-23T03:02:37;100117.00;;;14.68;90.43
54248;BME280;40161;39.768;2.722;2024-02-23T03:05:03;100113.06;;;14.69;91.30
54248;BME280;40161;39.768;2.722;2024-02-23T03:07:29;100104.31;;;14.75;92.51
54248;BME280;40161;39.768;2.722;2024-02-23T03:09:54;100101.63;;;14.67;92.95
54248;BME280;40161;39.768;2.722;2024-02-23T03:12:20;100108.34;;;14.66;93.47
54248;BME280;40161;39.768;2.722;2024-02-23T03:14:46;100124.50;;;14.68;93.36
54248;BME280;40161;39.768;2.722;2024-02-23T03:17:12;100093.91;;;14.44;94.54
54248;BME280;40161;39.768;2.722;2024-02-23T03:19:38;100102.19;;;14.44;96.04
54248;BME280;40161;39.768;2.722;2024-02-23T03:22:04;100100.59;;;14.47;97.68
54248;BME280;40161;39.768;2.722;2024-02-23T03:24:30;100098.31;;;14.38;97.11
54248;BME280;40161;39.768;2.722;2024-02-23T03:26:56;100123.47;;;14.47;98.52
54248;BME280;40161;39.768;2.722;2024-02-23T03:29:22;100124.66;;;14.46;97.26
54248;BME280;40161;39.768;2.722;2024-02-23T03:31:55;100128.56;;;14.56;97.43
54248;BME280;40161;39.768;2.722;2024-02-23T03:34:20;100105.03;;;14.34;96.43
54248;BME280;40161;39.768;2.722;2024-02-23T03:36:46;100088.22;;;14.14;97.31
54248;BME280;40161;39.768;2.722;2024-02-23T03:39:12;100120.06;;;14.29;95.41
54248;BME280;40161;39.768;2.722;2024-02-23T03:41:38;100128.69;;;14.35;94.57
54248;BME280;40161;39.768;2.722;2024-02-23T03:44:03;100104.41;;;14.15;93.90
54248;BME280;40161;39.768;2.722;2024-02-23T03:46:29;100098.19;;;14.04;93.85
54248;BME280;40161;39.768;2.722;2024-02-23T03:48:54;100090.75;;;13.94;94.24
54248;BME280;40161;39.768;2.722;2024-02-23T03:51:20;100132.81;;;14.09;94.30
54248;BME280;40161;39.768;2.722;2024-02-23T03:53:46;100116.25;;;14.12;94.20
54248;BME280;40161;39.768;2.722;2024-02-23T03:56:12;100121.16;;;13.87;93.63
54248;BME280;40161;39.768;2.722;2024-02-23T03:58:37;100148.28;;;13.95;94.48
54248;BME280;40161;39.768;2.722;2024-02-23T04:01:03;100115.25;;;13.81;96.55
54248;BME280;40161;39.768;2.722;2024-02-23T04:03:29;100155.41;;;13.86;99.49
54248;BME280;40161;39.768;2.722;2024-02-23T04:05:54;100121.66;;;13.60;100.00
54248;BME280;40161;39.768;2.722;2024-02-23T04:08:20;100123.66;;;13.56;100.00
54248;BME280;40161;39.768;2.722;2024-02-23T04:10:45;100123.69;;;13.49;100.00
54248;BME280;40161;39.768;2.722;2024-02-23T04:13:11;100129.22;;;13.35;100.00
54248;BME280;40161;39.768;2.722;2024-02-23T04:15:39;100115.09;;;13.22;100.00
54248;BME280;40161;39.768;2.722;2024-02-23T04:18:05;100137.09;;;13.40;100.00
54248;BME280;40161;39.768;2.722;2024-02-23T04:20:31;100148.94;;;13.33;100.00
54248;BME280;40161;39.768;2.722;2024-02-23T04:22:58;100151.28;;;13.31;100.00
54248;BME280;40161;39.768;2.722;2024-02-23T04:25:23;100139.13;;;13.21;100.00
54248;BME280;40161;39.768;2.722;2024-02-23T04:27:49;100137.56;;;13.10;100.00
54248;BME280;40161;39.768;2.722;2024-02-23T04:30:14;100129.31;;;13.02;100.00
54248;BME280;40161;39.768;2.722;2024-02-23T04:32:40;100176.50;;;13.26;100.00
54248;BME280;40161;39.768;2.722;2024-02-23T04:35:06;100169.81;;;13.13;100.00
54248;BME280;40161;39.768;2.722;2024-02-23T04:37:32;100163.53;;;13.12;100.00
54248;BME280;40161;39.768;2.722;2024-02-23T04:39:57;100187.53;;;13.15;100.00
54248;BME280;40161;39.768;2.722;2024-02-23T04:42:23;100185.16;;;13.06;100.00
54248;BME280;40161;39.768;2.722;2024-02-23T04:44:49;100151.75;;;12.97;100.00
54248;BME280;40161;39.768;2.722;2024-02-23T04:47:14;100146.59;;;13.14;100.00
54248;BME280;40161;39.768;2.722;2024-02-23T04:49:40;100140.28;;;13.13;100.00
54248;BME280;40161;39.768;2.722;2024-02-23T04:52:07;100121.75;;;13.42;100.00
54248;BME280;40161;39.768;2.722;2024-02-23T04:54:34;100148.88;;;13.51;100.00
54248;BME280;40161;39.768;2.722;2024-02-23T04:57:00;100142.59;;;13.43;100.00
54248;BME280;40161;39.768;2.722;2024-02-23T04:59:26;100135.91;;;13.41;100.00
54248;BME280;40161;39.768;2.722;2024-02-23T05:01:51;100114.34;;;13.03;100.00
54248;BME280;40161;39.768;2.722;2024-02-23T05:04:17;100126.56;;;13.02;100.00
54248;BME280;40161;39.768;2.722;2024-02-23T05:06:43;100142.69;;;13.07;100.00
54248;BME280;40161;39.768;2.722;2024-02-23T05:09:09;100163.13;;;13.03;100.00
54248;BME280;40161;39.768;2.722;2024-02-23T05:11:35;100164.34;;;12.95;100.00
54248;BME280;40161;39.768;2.722;2024-02-23T05:14:00;100165.13;;;12.92;100.00
54248;BME280;40161;39.768;2.722;2024-02-23T05:16:26;100160.03;;;12.97;100.00
54248;BME280;40161;39.768;2.722;2024-02-23T05:18:51;100145.44;;;12.97;100.00
54248;BME280;40161;39.768;2.722;2024-02-23T05:21:17;100165.91;;;12.85;100.00
54248;BME280;40161;39.768;2.722;2024-02-23T05:23:43;100212.72;;;12.78;100.00
54248;BME280;40161;39.768;2.722;2024-02-23T05:26:08;100231.22;;;12.70;100.00
54248;BME280;40161;39.768;2.722;2024-02-23T05:28:34;100258.69;;;12.52;100.00
54248;BME280;40161;39.768;2.722;2024-02-23T05:31:02;100246.44;;;12.25;100.00
54248;BME280;40161;39.768;2.722;2024-02-23T05:33:29;100264.94;;;12.31;100.00
54248;BME280;40161;39.768;2.722;2024-02-23T05:35:54;100263.03;;;12.35;100.00
54248;BME280;40161;39.768;2.722;2024-02-23T05:38:20;100276.03;;;12.53;100.00
54248;BME280;40161;39.768;2.722;2024-02-23T05:40:45;100277.19;;;12.48;100.00
54248;BME280;40161;39.768;2.722;2024-02-23T05:43:11;100255.91;;;12.34;100.00
54248;BME280;40161;39.768;2.722;2024-02-23T05:45:37;100280.72;;;12.45;100.00
54248;BME280;40161;39.768;2.722;2024-02-23T05:48:03;100290.16;;;12.51;100.00
54248;BME280;40161;39.768;2.722;2024-02-23T05:50:28;100283.41;;;12.24;100.00
54248;BME280;40161;39.768;2.722;2024-02-23T05:52:54;100275.56;;;12.22;100.00
54248;BME280;40161;39.768;2.722;2024-02-23T05:55:19;100279.03;;;12.12;100.00
54248;BME280;40161;39.768;2.722;2024-02-23T05:57:45;100233.38;;;11.90;100.00
54248;BME280;40161;39.768;2.722;2024-02-23T06:00:11;100251.59;;;12.30;100.00
54248;BME280;40161;39.768;2.722;2024-02-23T06:02:38;100248.84;;;12.37;100.00
54248;BME280;40161;39.768;2.722;2024-02-23T06:05:04;100265.03;;;12.60;100.00
54248;BME280;40161;39.768;2.722;2024-02-23T06:07:33;100252.47;;;12.73;100.00
54248;BME280;40161;39.768;2.722;2024-02-23T06:10:00;100232.00;;;12.53;100.00
54248;BME280;40161;39.768;2.722;2024-02-23T06:12:26;100253.19;;;12.52;100.00
54248;BME280;40161;39.768;2.722;2024-02-23T06:14:52;100251.19;;;12.28;100.00
54248;BME280;40161;39.768;2.722;2024-02-23T06:17:18;100257.06;;;12.23;100.00
54248;BME280;40161;39.768;2.722;2024-02-23T06:19:43;100258.59;;;12.13;100.00
54248;BME280;40161;39.768;2.722;2024-02-23T06:22:09;100260.13;;;12.00;100.00
54248;BME280;40161;39.768;2.722;2024-02-23T06:24:37;100273.13;;;12.06;100.00
54248;BME280;40161;39.768;2.722;2024-02-23T06:27:03;100305.78;;;12.19;100.00
54248;BME280;40161;39.768;2.722;2024-02-23T06:29:29;100298.03;;;12.46;100.00
54248;BME280;40161;39.768;2.722;2024-02-23T06:31:55;100308.28;;;12.56;100.00
54248;BME280;40161;39.768;2.722;2024-02-23T06:34:21;100314.88;;;12.33;100.00
54248;BME280;40161;39.768;2.722;2024-02-23T06:36:47;100303.00;;;12.04;100.00
54248;BME280;40161;39.768;2.722;2024-02-23T06:39:12;100290.47;;;12.28;100.00
54248;BME280;40161;39.768;2.722;2024-02-23T06:41:38;100277.56;;;12.36;100.00
54248;BME280;40161;39.768;2.722;2024-02-23T06:44:05;100292.81;;;12.19;100.00
54248;BME280;40161;39.768;2.722;2024-02-23T06:46:30;100300.75;;;12.39;100.00
54248;BME280;40161;39.768;2.722;2024-02-23T06:48:56;100329.13;;;12.61;100.00
54248;BME280;40161;39.768;2.722;2024-02-23T06:51:21;100317.28;;;12.46;100.00
54248;BME280;40161;39.768;2.722;2024-02-23T06:53:47;100333.31;;;12.22;100.00
54248;BME280;40161;39.768;2.722;2024-02-23T06:56:13;100331.72;;;12.21;100.00
54248;BME280;40161;39.768;2.722;2024-02-23T06:58:39;100329.81;;;12.25;100.00
54248;BME280;40161;39.768;2.722;2024-02-23T07:01:05;100327.47;;;12.38;100.00
54248;BME280;40161;39.768;2.722;2024-02-23T07:03:33;100331.75;;;12.25;99.66
54248;BME280;40161;39.768;2.722;2024-02-23T07:06:00;100322.31;;;12.22;100.00
54248;BME280;40161;39.768;2.722;2024-02-23T07:08:26;100334.09;;;12.19;100.00
54248;BME280;40161;39.768;2.722;2024-02-23T07:10:51;100333.25;;;12.08;100.00
54248;BME280;40161;39.768;2.722;2024-02-23T07:13:17;100365.09;;;12.09;100.00
54248;BME280;40161;39.768;2.722;2024-02-23T07:15:43;100358.84;;;12.16;100.00
54248;BME280;40161;39.768;2.722;2024-02-23T07:18:09;100367.13;;;12.26;100.00
54248;BME280;40161;39.768;2.722;2024-02-23T07:20:37;100365.25;;;12.48;100.00
54248;BME280;40161;39.768;2.722;2024-02-23T07:23:04;100383.25;;;12.31;100.00
54248;BME280;40161;39.768;2.722;2024-02-23T07:25:30;100386.25;;;12.01;94.78
54248;BME280;40161;39.768;2.722;2024-02-23T07:27:56;100382.88;;;12.29;95.77
54248;BME280;40161;39.768;2.722;2024-02-23T07:30:22;100390.47;;;12.61;96.79
54248;BME280;40161;39.768;2.722;2024-02-23T07:32:48;100403.81;;;12.55;95.35
54248;BME280;40161;39.768;2.722;2024-02-23T07:35:14;100412.81;;;12.49;95.70
54248;BME280;40161;39.768;2.722;2024-02-23T07:37:40;100402.88;;;12.23;89.85
54248;BME280;40161;39.768;2.722;2024-02-23T07:40:06;100408.44;;;12.33;88.31
54248;BME280;40161;39.768;2.722;2024-02-23T07:42:32;100387.97;;;12.27;86.25
54248;BME280;40161;39.768;2.722;2024-02-23T07:45:04;100417.22;;;12.61;83.33
54248;BME280;40161;39.768;2.722;2024-02-23T07:47:33;100426.78;;;13.02;77.44
54248;BME280;40161;39.768;2.722;2024-02-23T07:49:58;100429.47;;;12.74;82.16
54248;BME280;40161;39.768;2.722;2024-02-23T07:52:24;100436.94;;;12.70;77.17
54248;BME280;40161;39.768;2.722;2024-02-23T07:54:53;100446.34;;;12.72;76.26
54248;BME280;40161;39.768;2.722;2024-02-23T07:57:20;100453.47;;;12.77;72.33
54248;BME280;40161;39.768;2.722;2024-02-23T07:59:46;100445.22;;;12.80;74.03
54248;BME280;40161;39.768;2.722;2024-02-23T08:02:11;100429.50;;;12.81;71.33
54248;BME280;40161;39.768;2.722;2024-02-23T08:04:37;100455.16;;;13.14;69.57
54248;BME280;40161;39.768;2.722;2024-02-23T08:07:03;100461.50;;;13.21;72.39
54248;BME280;40161;39.768;2.722;2024-02-23T08:09:29;100473.22;;;13.04;71.33
54248;BME280;40161;39.768;2.722;2024-02-23T08:11:55;100430.69;;;12.87;71.68
54248;BME280;40161;39.768;2.722;2024-02-23T08:14:20;100481.13;;;13.09;71.21
54248;BME280;40161;39.768;2.722;2024-02-23T08:16:46;100472.56;;;13.25;65.62
54248;BME280;40161;39.768;2.722;2024-02-23T08:19:12;100480.22;;;12.80;66.75
54248;BME280;40161;39.768;2.722;2024-02-23T08:21:37;100461.31;;;12.71;68.75
54248;BME280;40161;39.768;2.722;2024-02-23T08:24:03;100466.81;;;12.68;68.48
54248;BME280;40161;39.768;2.722;2024-02-23T08:26:29;100458.19;;;12.80;68.10
54248;BME280;40161;39.768;2.722;2024-02-23T08:28:54;100468.69;;;12.53;69.04
54248;BME280;40161;39.768;2.722;2024-02-23T08:31:20;100493.47;;;12.49;70.67
54248;BME280;40161;39.768;2.722;2024-02-23T08:33:46;100493.91;;;12.62;71.54
54248;BME280;40161;39.768;2.722;2024-02-23T08:36:12;100489.25;;;12.73;70.34
54248;BME280;40161;39.768;2.722;2024-02-23T08:38:37;100464.28;;;12.41;68.80
54248;BME280;40161;39.768;2.722;2024-02-23T08:41:03;100488.00;;;12.60;68.53
54248;BME280;40161;39.768;2.722;2024-02-23T08:43:29;100464.75;;;12.50;68.93
54248;BME280;40161;39.768;2.722;2024-02-23T08:45:54;100489.69;;;12.90;67.89
54248;BME280;40161;39.768;2.722;2024-02-23T08:48:20;100477.13;;;12.92;69.39
54248;BME280;40161;39.768;2.722;2024-02-23T08:50:46;100478.28;;;12.88;70.42
54248;BME280;40161;39.768;2.722;2024-02-23T08:53:11;100488.09;;;12.78;69.87
54248;BME280;40161;39.768;2.722;2024-02-23T08:55:37;100452.97;;;12.53;72.00
54248;BME280;40161;39.768;2.722;2024-02-23T08:58:02;100482.94;;;12.73;69.54
54248;BME280;40161;39.768;2.722;2024-02-23T09:00:28;100506.91;;;12.69;71.79
54248;BME280;40161;39.768;2.722;2024-02-23T09:02:54;100466.25;;;12.37;71.72
54248;BME280;40161;39.768;2.722;2024-02-23T09:05:19;100494.69;;;12.63;70.63
54248;BME280;40161;39.768;2.722;2024-02-23T09:07:46;100487.19;;;12.56;72.52
54248;BME280;40161;39.768;2.722;2024-02-23T09:10:12;100497.91;;;12.75;71.61
54248;BME280;40161;39.768;2.722;2024-02-23T09:12:37;100484.50;;;12.63;72.60
54248;BME280;40161;39.768;2.722;2024-02-23T09:15:04;100511.72;;;12.86;70.90
54248;BME280;40161;39.768;2.722;2024-02-23T09:17:30;100510.44;;;12.66;70.82
54248;BME280;40161;39.768;2.722;2024-02-23T09:19:56;100495.88;;;12.62;69.65
54248;BME280;40161;39.768;2.722;2024-02-23T09:22:21;100486.75;;;12.47;72.10
54248;BME280;40161;39.768;2.722;2024-02-23T09:24:48;100514.31;;;12.54;70.08
54248;BME280;40161;39.768;2.722;2024-02-23T09:27:13;100482.81;;;12.48;69.40
54248;BME280;40161;39.768;2.722;2024-02-23T09:29:40;100504.09;;;12.54;70.40
54248;BME280;40161;39.768;2.722;2024-02-23T09:32:07;100485.63;;;12.62;68.24
54248;BME280;40161;39.768;2.722;2024-02-23T09:34:32;100461.63;;;12.55;69.85
54248;BME280;40161;39.768;2.722;2024-02-23T09:36:58;100495.97;;;12.87;69.26
54248;BME280;40161;39.768;2.722;2024-02-23T09:39:24;100509.34;;;12.81;67.69
54248;BME280;40161;39.768;2.722;2024-02-23T09:41:52;100514.50;;;12.97;68.54
54248;BME280;40161;39.768;2.722;2024-02-23T09:44:19;100505.34;;;12.68;68.23
54248;BME280;40161;39.768;2.722;2024-02-23T09:46:47;100488.03;;;12.67;70.38
54248;BME280;40161;39.768;2.722;2024-02-23T09:49:15;100512.56;;;12.97;70.18
54248;BME280;40161;39.768;2.722;2024-02-23T09:51:43;100522.78;;;12.97;70.26
54248;BME280;40161;39.768;2.722;2024-02-23T09:54:09;100486.19;;;13.00;69.30
54248;BME280;40161;39.768;2.722;2024-02-23T09:56:34;100483.38;;;12.82;67.63
54248;BME280;40161;39.768;2.722;2024-02-23T09:59:03;100508.19;;;12.89;68.04
54248;BME280;40161;39.768;2.722;2024-02-23T10:01:31;100507.81;;;12.91;69.90
54248;BME280;40161;39.768;2.722;2024-02-23T10:03:59;100538.97;;;13.05;67.57
54248;BME280;40161;39.768;2.722;2024-02-23T10:06:25;100553.03;;;12.86;67.58
54248;BME280;40161;39.768;2.722;2024-02-23T10:08:51;100513.16;;;12.62;67.68
54248;BME280;40161;39.768;2.722;2024-02-23T10:11:20;100557.06;;;13.10;68.36
54248;BME280;40161;39.768;2.722;2024-02-23T10:13:50;100553.06;;;12.97;67.21
54248;BME280;40161;39.768;2.722;2024-02-23T10:16:17;100529.72;;;12.69;69.05
54248;BME280;40161;39.768;2.722;2024-02-23T10:18:46;100550.16;;;12.65;65.61
54248;BME280;40161;39.768;2.722;2024-02-23T10:21:12;100563.19;;;12.75;66.03
54248;BME280;40161;39.768;2.722;2024-02-23T10:23:38;100532.22;;;12.92;63.45
54248;BME280;40161;39.768;2.722;2024-02-23T10:26:05;100581.53;;;13.19;64.95
54248;BME280;40161;39.768;2.722;2024-02-23T10:28:31;100555.53;;;13.20;65.10
54248;BME280;40161;39.768;2.722;2024-02-23T10:30:57;100595.88;;;13.60;65.66
54248;BME280;40161;39.768;2.722;2024-02-23T10:33:23;100544.25;;;13.50;63.64
54248;BME280;40161;39.768;2.722;2024-02-23T10:35:55;100589.66;;;13.99;63.49
54248;BME280;40161;39.768;2.722;2024-02-23T10:38:26;100575.06;;;13.77;62.52
54248;BME280;40161;39.768;2.722;2024-02-23T10:40:54;100567.09;;;13.43;62.89
54248;BME280;40161;39.768;2.722;2024-02-23T10:43:29;100606.59;;;13.90;61.75
54248;BME280;40161;39.768;2.722;2024-02-23T10:45:56;100593.50;;;13.62;63.97
54248;BME280;40161;39.768;2.722;2024-02-23T10:48:23;100545.69;;;13.15;64.00
54248;BME280;40161;39.768;2.722;2024-02-23T10:50:50;100581.66;;;13.51;62.51
54248;BME280;40161;39.768;2.722;2024-02-23T10:53:16;100569.28;;;13.09;63.27
54248;BME280;40161;39.768;2.722;2024-02-23T10:55:45;100604.88;;;13.36;65.14
54248;BME280;40161;39.768;2.722;2024-02-23T10:58:11;100591.09;;;13.39;63.05
54248;BME280;40161;39.768;2.722;2024-02-23T11:00:39;100594.69;;;13.54;63.34
54248;BME280;40161;39.768;2.722;2024-02-23T11:03:06;100599.44;;;13.61;62.64
54248;BME280;40161;39.768;2.722;2024-02-23T11:05:33;100600.16;;;13.40;62.39
54248;BME280;40161;39.768;2.722;2024-02-23T11:07:59;100606.03;;;13.42;63.98
54248;BME280;40161;39.768;2.722;2024-02-23T11:10:25;100605.44;;;13.04;63.12
54248;BME280;40161;39.768;2.722;2024-02-23T11:13:08;100610.66;;;13.23;62.58
54248;BME280;40161;39.768;2.722;2024-02-23T11:15:33;100584.63;;;13.10;62.94
54248;BME280;40161;39.768;2.722;2024-02-23T11:18:21;100608.31;;;13.22;62.88
54248;BME280;40161;39.768;2.722;2024-02-23T11:20:58;100591.44;;;13.30;62.56
54248;BME280;40161;39.768;2.722;2024-02-23T11:23:24;100595.41;;;13.37;62.38
54248;BME280;40161;39.768;2.722;2024-02-23T11:26:19;100625.31;;;13.35;60.66
54248;BME280;40161;39.768;2.722;2024-02-23T11:28:49;100624.06;;;13.21;60.58
54248;BME280;40161;39.768;2.722;2024-02-23T11:31:20;100622.56;;;13.35;60.20
54248;BME280;40161;39.768;2.722;2024-02-23T11:33:52;100630.47;;;13.40;60.40
54248;BME280;40161;39.768;2.722;2024-02-23T11:36:28;100625.41;;;13.49;59.37
54248;BME280;40161;39.768;2.722;2024-02-23T11:38:55;100630.19;;;13.73;60.77
54248;BME280;40161;39.768;2.722;2024-02-23T11:41:22;100630.19;;;13.73;59.49
54248;BME280;40161;39.768;2.722;2024-02-23T11:43:52;100619.16;;;13.70;59.06
54248;BME280;40161;39.768;2.722;2024-02-23T11:46:18;100619.53;;;13.65;59.33
54248;BME280;40161;39.768;2.722;2024-02-23T11:48:45;100619.53;;;13.72;57.71
54248;BME280;40161;39.768;2.722;2024-02-23T11:51:15;100630.69;;;14.25;57.19
54248;BME280;40161;39.768;2.722;2024-02-23T11:53:41;100605.84;;;14.22;56.94
54248;BME280;40161;39.768;2.722;2024-02-23T11:56:07;100593.59;;;14.09;56.76
54248;BME280;40161;39.768;2.722;2024-02-23T11:58:33;100610.19;;;14.52;55.37
54248;BME280;40161;39.768;2.722;2024-02-23T12:01:02;100565.22;;;14.05;54.78
54248;BME280;40161;39.768;2.722;2024-02-23T12:03:29;100593.22;;;14.46;54.46
54248;BME280;40161;39.768;2.722;2024-02-23T12:06:01;100612.16;;;14.58;54.67
54248;BME280;40161;39.768;2.722;2024-02-23T12:08:27;100551.81;;;14.53;53.63
54248;BME280;40161;39.768;2.722;2024-02-23T12:10:55;100600.28;;;14.93;53.75
54248;BME280;40161;39.768;2.722;2024-02-23T12:13:21;100596.38;;;14.69;54.13
54248;BME280;40161;39.768;2.722;2024-02-23T12:15:52;100596.78;;;14.61;52.32
54248;BME280;40161;39.768;2.722;2024-02-23T12:18:20;100598.75;;;14.35;53.86
54248;BME280;40161;39.768;2.722;2024-02-23T12:20:49;100584.13;;;14.06;55.38
54248;BME280;40161;39.768;2.722;2024-02-23T12:23:14;100579.41;;;14.24;56.32
54248;BME280;40161;39.768;2.722;2024-02-23T12:25:40;100595.22;;;14.56;55.75
54248;BME280;40161;39.768;2.722;2024-02-23T12:28:06;100572.31;;;14.38;54.08
54248;BME280;40161;39.768;2.722;2024-02-23T12:30:32;100571.16;;;14.53;53.99
54248;BME280;40161;39.768;2.722;2024-02-23T12:33:06;100550.22;;;14.38;53.48
54248;BME280;40161;39.768;2.722;2024-02-23T12:35:36;100554.59;;;14.39;53.19
54248;BME280;40161;39.768;2.722;2024-02-23T12:38:01;100554.56;;;14.46;51.65
54248;BME280;40161;39.768;2.722;2024-02-23T12:40:27;100560.88;;;14.64;52.05
54248;BME280;40161;39.768;2.722;2024-02-23T12:42:52;100530.94;;;14.52;52.13
54248;BME280;40161;39.768;2.722;2024-02-23T12:45:18;100513.16;;;14.46;51.81